Aérodrome :
LOGIN :

S'inscrire | Disclaimer

   EN    FR    IT 

 










Légende :    VFR   VFR Marginal   IFR   IFR Intensif   IFR Très Intensif
Visi : 
Plafond : 
>= 8 km
>= 3000ft
5 à 8 km
1000 à 3000 ft
1500m à 5 km
500 à 1000 ft
800 à 1500m
200 à 500 ft
< 800m
< 200 ft
Symboles :   Orages  Brouillard  Fortes neiges  Fortes précipitations  Vent > 20 kt
SIGMETs :   Divers  Orages  Givrage  Turbulence  Onde Orograph.  Cendres Volcan.







- Altitude de l'aérodrome : 1325 ft
- Code IATA : EBU
- Voir les cartes d'approche


LFMH - St-Etienne Boutheon

DERNIER METAR :
  • 162300Z AUTO VRB02KT 9999 BKN040 BKN062 21/17 Q1021

METARs EXPIRÉS :
  • 162230Z AUTO 00000KT 9999 BKN042 BKN048 21/17 Q1021
  • 162200Z AUTO 34003KT 290V360 9999 BKN048 22/17 Q1021
  • 162130Z AUTO 35005KT 9999 SCT048 22/17 Q1021
  • 162100Z AUTO 34004KT 310V020 9999 BKN046 BKN052 21/17 Q1021
  • 162030Z AUTO 07004KT CAVOK 20/16 Q1021

TAF TAF LFMH
Valide du 16 à 15h jusqu'au 17 à 15h UTC


161400Z 1615/1715 VRB03KT CAVOK
PROB40
TEMPO 1615/1620 SHRA SCT030TCU BKN040
PROB30
TEMPO 1615/1618 TS SCT030CB OVC050
BECMG 1621/1624 CAVOK
PROB40
TEMPO 1700/1703 3000 BR
ATIS : +33 4 77 36 17 51
Pas de NOTAMs connus pour ce terrain.



MET'MAP, la Météo Aéronautique d'un coup d'oeil ! - Copyright ORBIFLY Décembre 2007 - Disclaimer

ORBIFLY MET'MAP TEAM :

Programmation & Développement : Alexandra Zaïnal
Conception & Développement : Baudouin d'Aumeries
Co-Programmation & Développement : Marc-Olivier Méhu
Soutien technique & logistique : Manuel Goepfert

Contact : metmap@orbifly.com




SOURCES & CREDITS :

   NOAA